createdAt,value
2019-05-11T00:00:19.313Z,94412.46
2019-05-11T00:02:48.950Z,94414.75
2019-05-11T00:05:19.099Z,94419.32
2019-05-11T00:07:49.043Z,94423.73
2019-05-11T00:10:18.791Z,94420.34
2019-05-11T00:12:48.414Z,94409.92
2019-05-11T00:15:18.163Z,94414.23
2019-05-11T00:17:47.811Z,94413.38
2019-05-11T00:20:17.659Z,94418.91
2019-05-11T00:22:47.332Z,94411.41
2019-05-11T00:25:17.288Z,94412.72
2019-05-11T00:27:46.960Z,94409.29
2019-05-11T00:30:16.781Z,94413.89
2019-05-11T00:32:46.400Z,94413.45
2019-05-11T00:35:16.028Z,94415.86
2019-05-11T00:37:45.655Z,94411.64
2019-05-11T00:40:15.502Z,94415.38
2019-05-11T00:42:45.215Z,94408.78
2019-05-11T00:45:15.080Z,94412.55
2019-05-11T00:47:44.708Z,94413.34
2019-05-11T00:50:15.964Z,94420.58
2019-05-11T00:52:45.614Z,94419.65
2019-05-11T00:55:15.382Z,94418.34
2019-05-11T00:57:45.036Z,94417.32
2019-05-11T01:00:15.197Z,94419.60
2019-05-11T01:02:44.821Z,94413.28
2019-05-11T01:05:14.916Z,94418.75
2019-05-11T01:07:44.527Z,94412.56
2019-05-11T01:10:25.298Z,94417.95
2019-05-11T01:12:45.771Z,94420.02
2019-05-11T01:15:15.731Z,94425.12
2019-05-11T01:17:45.479Z,94425.78
2019-05-11T01:20:18.687Z,94425.11
2019-05-11T01:22:47.819Z,94421.53
2019-05-11T01:25:17.500Z,94430.70
2019-05-11T01:27:47.145Z,94429.92
2019-05-11T01:30:17.491Z,94434.73
2019-05-11T01:32:47.167Z,94431.87
2019-05-11T01:35:16.985Z,94430.84
2019-05-11T01:37:46.607Z,94429.75
2019-05-11T01:40:17.414Z,94438.31
2019-05-11T01:42:46.995Z,94433.70
2019-05-11T01:45:16.716Z,94440.82
2019-05-11T01:47:46.386Z,94445.16
2019-05-11T01:50:16.019Z,94449.29
2019-05-11T01:52:45.640Z,94447.44
2019-05-11T01:55:15.341Z,94453.38
2019-05-11T01:57:44.976Z,94459.60
2019-05-11T02:00:14.763Z,94464.20
2019-05-11T02:02:44.376Z,94471.09
2019-05-11T02:05:30.109Z,94470.52
2019-05-11T02:08:02.126Z,94469.94
2019-05-11T02:10:32.602Z,94469.15
2019-05-11T02:13:02.261Z,94469.36
2019-05-11T02:15:32.002Z,94466.47
2019-05-11T02:18:01.715Z,94468.89
2019-05-11T02:20:31.305Z,94466.05
2019-05-11T02:23:00.912Z,94465.84
2019-05-11T02:25:30.615Z,94461.30
2019-05-11T02:28:00.254Z,94465.55
2019-05-11T02:30:29.881Z,94464.44
2019-05-11T02:32:59.609Z,94467.06
2019-05-11T02:35:29.216Z,94462.16
2019-05-11T02:37:58.868Z,94467.53
2019-05-11T02:40:28.778Z,94465.98
2019-05-11T02:42:58.365Z,94466.31
2019-05-11T02:45:40.732Z,94466.38
2019-05-11T02:48:11.007Z,94474.50
2019-05-11T02:50:40.587Z,94479.84
2019-05-11T02:53:10.619Z,94481.33
2019-05-11T02:55:40.697Z,94480.54
2019-05-11T02:58:10.589Z,94484.31
2019-05-11T03:00:42.426Z,94480.58
2019-05-11T03:03:12.166Z,94482.05
2019-05-11T03:05:42.079Z,94488.18
2019-05-11T03:08:11.917Z,94487.52
2019-05-11T03:10:41.725Z,94490.91
2019-05-11T03:13:11.583Z,94485.44
2019-05-11T03:15:41.270Z,94497.09
2019-05-11T03:18:10.864Z,94493.19
2019-05-11T03:20:40.474Z,94496.27
2019-05-11T03:23:10.138Z,94494.16
2019-05-11T03:25:39.888Z,94503.23
2019-05-11T03:28:09.599Z,94508.41
2019-05-11T03:30:39.343Z,94509.55
2019-05-11T03:33:08.983Z,94516.53
2019-05-11T03:35:38.542Z,94516.38
2019-05-11T03:38:08.184Z,94512.43
2019-05-11T03:40:37.899Z,94521.00
2019-05-11T03:43:07.515Z,94523.11
2019-05-11T03:45:37.171Z,94527.02
2019-05-11T03:48:06.946Z,94522.63
2019-05-11T03:50:36.606Z,94527.81
2019-05-11T03:53:06.326Z,94527.80
2019-05-11T03:55:35.925Z,94531.20
2019-05-11T03:58:05.604Z,94527.77
2019-05-11T04:00:35.205Z,94537.30
2019-05-11T04:03:05.112Z,94536.30
2019-05-11T04:05:34.861Z,94541.95
2019-05-11T04:08:04.856Z,94540.31
2019-05-11T04:10:34.367Z,94538.48
2019-05-11T04:13:03.719Z,94542.50
2019-05-11T04:15:33.138Z,94544.60
2019-05-11T04:18:02.510Z,94543.57
2019-05-11T04:20:31.958Z,94547.28
2019-05-11T04:23:01.581Z,94547.28
2019-05-11T04:25:30.963Z,94552.16
2019-05-11T04:28:00.619Z,94550.65
2019-05-11T04:30:30.006Z,94551.91
2019-05-11T04:32:59.490Z,94555.63
2019-05-11T04:35:28.863Z,94555.20
2019-05-11T04:37:58.224Z,94548.26
2019-05-11T04:40:27.664Z,94549.52
2019-05-11T04:42:57.130Z,94547.48
2019-05-11T04:45:26.566Z,94550.69
2019-05-11T04:47:55.958Z,94548.28
2019-05-11T04:50:25.459Z,94553.47
2019-05-11T04:52:54.912Z,94553.42
2019-05-11T04:55:24.276Z,94558.82
2019-05-11T04:57:56.526Z,94560.20
2019-05-11T05:00:25.959Z,94566.28
2019-05-11T05:02:55.438Z,94565.84
2019-05-11T05:05:24.835Z,94566.20
2019-05-11T05:08:07.414Z,94576.22
2019-05-11T05:10:25.414Z,94569.92
2019-05-11T05:13:09.702Z,94578.72
2019-05-11T05:15:26.054Z,94579.76
2019-05-11T05:17:55.477Z,94579.06
2019-05-11T05:20:24.884Z,94587.14
2019-05-11T05:22:54.362Z,94587.03
2019-05-11T05:25:23.828Z,94586.62
2019-05-11T05:27:53.170Z,94583.80
2019-05-11T05:30:22.604Z,94587.91
2019-05-11T05:32:52.091Z,94591.27
2019-05-11T05:35:21.510Z,94591.16
2019-05-11T05:37:50.907Z,94592.02
2019-05-11T05:40:20.419Z,94594.39
2019-05-11T05:42:49.904Z,94585.51
2019-05-11T05:45:19.454Z,94593.67
2019-05-11T05:47:48.846Z,94593.36
2019-05-11T05:50:18.319Z,94587.70
2019-05-11T05:52:47.767Z,94586.37
2019-05-11T05:55:17.134Z,94582.16
2019-05-11T05:57:46.567Z,94594.03
2019-05-11T06:00:16.465Z,94597.06
2019-05-11T06:02:45.925Z,94585.23
2019-05-11T06:05:15.341Z,94595.91
2019-05-11T06:07:44.863Z,94594.58
2019-05-11T06:10:14.461Z,94605.45
2019-05-11T06:12:43.973Z,94604.92
2019-05-11T06:15:14.168Z,94611.48
2019-05-11T06:17:43.680Z,94605.92
2019-05-11T06:20:13.655Z,94610.75
2019-05-11T06:22:43.103Z,94615.33
2019-05-11T06:25:12.804Z,94620.89
2019-05-11T06:27:42.253Z,94621.41
2019-05-11T06:30:12.100Z,94630.49
2019-05-11T06:32:41.942Z,94634.48
2019-05-11T06:35:11.496Z,94633.31
2019-05-11T06:37:40.954Z,94629.19
2019-05-11T06:40:10.685Z,94620.03
2019-05-11T06:42:40.094Z,94620.03
2019-05-11T06:45:09.837Z,94629.41
2019-05-11T06:47:39.216Z,94623.62
2019-05-11T06:50:08.693Z,94623.62
2019-05-11T06:52:38.321Z,94628.04
2019-05-11T06:55:08.011Z,94627.84
2019-05-11T06:57:37.423Z,94627.84
2019-05-11T07:00:07.285Z,94614.44
2019-05-11T07:02:36.721Z,94617.53
2019-05-11T07:05:06.768Z,94626.44
2019-05-11T07:07:47.235Z,94616.59
2019-05-11T07:10:07.732Z,94616.59
2019-05-11T07:12:37.184Z,94626.58
2019-05-11T07:15:08.484Z,94615.21
2019-05-11T07:17:37.895Z,94625.89
2019-05-11T07:20:07.697Z,94626.27
2019-05-11T07:22:37.070Z,94629.09
2019-05-11T07:25:06.495Z,94629.09
2019-05-11T07:27:35.937Z,94628.27
2019-05-11T07:30:06.265Z,94620.93
2019-05-11T07:32:37.886Z,94607.33
2019-05-11T07:35:08.476Z,94625.86
2019-05-11T07:37:38.742Z,94628.48
2019-05-11T07:40:09.044Z,94625.48
2019-05-11T07:42:38.467Z,94625.48
2019-05-11T07:45:09.015Z,94630.92
2019-05-11T07:47:38.588Z,94625.19
2019-05-11T07:50:09.343Z,94614.59
2019-05-11T07:52:38.792Z,94637.58
2019-05-11T07:55:08.850Z,94633.55
2019-05-11T07:57:39.209Z,94623.66
2019-05-11T08:00:09.533Z,94627.41
2019-05-11T08:02:39.078Z,94633.68
2019-05-11T08:05:08.928Z,94631.94
2019-05-11T08:07:38.350Z,94628.13
2019-05-11T08:10:08.885Z,94641.05
2019-05-11T08:12:39.056Z,94633.53
2019-05-11T08:15:13.418Z,94637.16
2019-05-11T08:17:40.898Z,94627.05
2019-05-11T08:20:11.184Z,94637.16
2019-05-11T08:22:40.558Z,94625.73
2019-05-11T08:25:09.938Z,94628.13
2019-05-11T08:27:39.320Z,94635.41
2019-05-11T08:30:10.130Z,94649.65
2019-05-11T08:32:39.520Z,94622.95
2019-05-11T08:35:09.670Z,94637.73
2019-05-11T08:37:39.054Z,94625.53
2019-05-11T08:40:09.200Z,94617.28
2019-05-11T08:42:38.626Z,94606.69
2019-05-11T08:45:18.925Z,94608.77
2019-05-11T08:47:40.002Z,94605.45
2019-05-11T08:50:09.539Z,94616.75
2019-05-11T08:52:39.020Z,94616.00
2019-05-11T08:55:08.732Z,94609.65
2019-05-11T08:57:38.785Z,94605.20
2019-05-11T09:00:09.791Z,94598.86
2019-05-11T09:02:39.139Z,94596.54
2019-05-11T09:05:08.657Z,94593.89
2019-05-11T09:07:38.512Z,94599.00
2019-05-11T09:10:08.337Z,94604.14
2019-05-11T09:12:38.362Z,94607.81
2019-05-11T09:15:08.884Z,94600.51
2019-05-11T09:17:38.409Z,94602.19
2019-05-11T09:20:09.046Z,94596.64
2019-05-11T09:22:38.425Z,94603.42
2019-05-11T09:25:08.795Z,94599.41
2019-05-11T09:27:38.484Z,94609.70
2019-05-11T09:30:08.788Z,94599.41
2019-05-11T09:32:38.660Z,94599.52
2019-05-11T09:35:08.874Z,94618.22
2019-05-11T09:37:38.362Z,94604.97
2019-05-11T09:40:08.124Z,94597.14
2019-05-11T09:42:38.818Z,94603.10
2019-05-11T09:45:08.659Z,94598.89
2019-05-11T09:47:38.815Z,94593.89
2019-05-11T09:50:08.833Z,94584.67
2019-05-11T09:52:38.690Z,94591.27
2019-05-11T09:55:09.071Z,94581.55
2019-05-11T09:57:38.531Z,94584.13
2019-05-11T10:00:08.816Z,94588.38
2019-05-11T10:02:38.769Z,94593.76
2019-05-11T10:05:08.590Z,94585.57
2019-05-11T10:07:38.259Z,94594.02
2019-05-11T10:10:09.223Z,94599.56
2019-05-11T10:12:39.031Z,94592.43
2019-05-11T10:15:09.023Z,94589.40
2019-05-11T10:17:38.687Z,94584.44
2019-05-11T10:20:09.402Z,94585.91
2019-05-11T10:22:39.051Z,94585.42
2019-05-11T10:25:09.220Z,94597.84
2019-05-11T10:27:38.745Z,94587.52
2019-05-11T10:30:08.933Z,94588.65
2019-05-11T10:32:38.699Z,94584.67
2019-05-11T10:35:08.493Z,94586.02
2019-05-11T10:37:38.890Z,94578.06
2019-05-11T10:40:09.907Z,94582.48
2019-05-11T10:42:40.114Z,94568.07
2019-05-11T10:45:09.936Z,94545.05
2019-05-11T10:47:39.446Z,94567.78
2019-05-11T10:50:09.165Z,94565.55
2019-05-11T10:52:38.647Z,94564.96
2019-05-11T10:55:08.861Z,94564.20
2019-05-11T10:57:38.910Z,94568.05
2019-05-11T11:00:09.266Z,94562.09
2019-05-11T11:02:38.688Z,94558.52
2019-05-11T11:05:08.475Z,94553.17
2019-05-11T11:07:38.502Z,94551.72
2019-05-11T11:10:09.022Z,94553.72
2019-05-11T11:12:38.791Z,94568.24
2019-05-11T11:15:08.758Z,94552.05
2019-05-11T11:17:38.841Z,94563.34
2019-05-11T11:20:08.886Z,94552.39
2019-05-11T11:22:42.955Z,94553.72
2019-05-11T11:25:09.998Z,94552.37
2019-05-11T11:27:39.376Z,94553.33
2019-05-11T11:30:09.424Z,94557.55
2019-05-11T11:32:38.808Z,94554.50
2019-05-11T11:35:08.731Z,94556.66
2019-05-11T11:37:40.016Z,94550.66
2019-05-11T11:40:09.693Z,94558.44
2019-05-11T11:42:39.099Z,94553.47
2019-05-11T11:45:10.619Z,94554.00
2019-05-11T11:47:40.008Z,94542.61
2019-05-11T11:50:09.931Z,94545.63
2019-05-11T11:52:39.307Z,94544.34
2019-05-11T11:55:08.888Z,94540.59
2019-05-11T11:57:38.310Z,94539.11
2019-05-11T12:00:09.226Z,94543.08
2019-05-11T12:02:39.007Z,94535.92
2019-05-11T12:05:08.892Z,94534.98
2019-05-11T12:07:38.852Z,94534.48
2019-05-11T12:10:08.987Z,94530.22
2019-05-11T12:12:38.838Z,94540.07
2019-05-11T12:15:09.087Z,94532.62
2019-05-11T12:17:38.762Z,94529.72
2019-05-11T12:20:09.099Z,94518.38
2019-05-11T12:22:38.844Z,94514.53
2019-05-11T12:25:08.389Z,94509.73
2019-05-11T12:27:38.504Z,94514.81
2019-05-11T12:30:09.220Z,94514.27
2019-05-11T12:32:48.916Z,94519.32
2019-05-11T12:35:18.785Z,94518.51
2019-05-11T12:37:48.608Z,94504.96
2019-05-11T12:40:18.355Z,94505.23
2019-05-11T12:42:48.875Z,94512.92
2019-05-11T12:45:18.538Z,94513.48
2019-05-11T12:47:48.656Z,94504.16
2019-05-11T12:50:18.870Z,94506.11
2019-05-11T12:52:48.286Z,94506.17
2019-05-11T12:55:18.153Z,94512.50
2019-05-11T12:57:48.169Z,94504.24
2019-05-11T13:00:18.230Z,94504.63
2019-05-11T13:02:48.393Z,94499.19
2019-05-11T13:05:18.572Z,94500.88
2019-05-11T13:07:48.608Z,94494.51
2019-05-11T13:10:18.784Z,94496.75
2019-05-11T13:12:49.396Z,94487.91
2019-05-11T13:15:20.430Z,94489.60
2019-05-11T13:17:49.899Z,94486.81
2019-05-11T13:20:19.293Z,94485.75
2019-05-11T13:22:49.092Z,94484.94
2019-05-11T13:25:18.547Z,94480.98
2019-05-11T13:27:49.249Z,94485.28
2019-05-11T13:30:19.188Z,94483.33
2019-05-11T13:32:49.192Z,94481.60
2019-05-11T13:35:18.957Z,94479.28
2019-05-11T13:37:48.435Z,94479.03
2019-05-11T13:40:18.586Z,94467.32
2019-05-11T13:42:49.034Z,94466.91
2019-05-11T13:45:18.851Z,94468.16
2019-05-11T13:47:55.183Z,94466.25
2019-05-11T13:50:19.928Z,94477.64
2019-05-11T13:52:49.282Z,94472.08
2019-05-11T13:55:18.701Z,94473.23
2019-05-11T13:57:48.680Z,94464.03
2019-05-11T14:00:18.382Z,94463.32
2019-05-11T14:02:48.606Z,94464.14
2019-05-11T14:05:18.321Z,94468.63
2019-05-11T14:07:48.256Z,94470.32
2019-05-11T14:10:18.365Z,94468.17
2019-05-11T14:12:48.048Z,94471.05
2019-05-11T14:15:18.768Z,94462.99
2019-05-11T14:18:04.448Z,94468.66
2019-05-11T14:20:21.245Z,94464.80
2019-05-11T14:22:50.855Z,94469.97
2019-05-11T14:25:20.269Z,94467.10
2019-05-11T14:27:49.710Z,94463.68
2019-05-11T14:30:20.096Z,94464.23
2019-05-11T14:32:49.586Z,94464.20
2019-05-11T14:35:19.156Z,94468.99
2019-05-11T14:37:48.922Z,94470.36
2019-05-11T14:40:18.673Z,94472.08
2019-05-11T14:42:48.972Z,94472.73
2019-05-11T14:45:19.004Z,94470.80
2019-05-11T14:47:48.594Z,94448.69
2019-05-11T14:50:18.874Z,94465.21
2019-05-11T14:52:49.185Z,94470.91
2019-05-11T14:55:18.809Z,94469.33
2019-05-11T14:57:48.762Z,94476.70
2019-05-11T15:00:18.819Z,94471.52
2019-05-11T15:02:49.601Z,94472.61
2019-05-11T15:05:20.317Z,94470.94
2019-05-11T15:07:52.377Z,94468.33
2019-05-11T15:10:22.267Z,94468.22
2019-05-11T15:12:51.628Z,94464.46
2019-05-11T15:15:21.018Z,94464.46
2019-05-11T15:17:50.412Z,94467.89
2019-05-11T15:20:20.193Z,94473.69
2019-05-11T15:22:49.605Z,94466.65
2019-05-11T15:25:19.942Z,94461.63
2019-05-11T15:27:49.604Z,94457.39
2019-05-11T15:30:19.417Z,94456.02
2019-05-11T15:32:48.786Z,94459.29
2019-05-11T15:35:19.052Z,94454.39
2019-05-11T15:37:48.727Z,94461.34
2019-05-11T15:40:20.506Z,94454.08
2019-05-11T15:42:49.953Z,94457.42
2019-05-11T15:45:20.152Z,94455.80
2019-05-11T15:47:49.490Z,94456.88
2019-05-11T15:50:19.616Z,94459.13
2019-05-11T15:52:49.214Z,94462.16
2019-05-11T15:55:20.346Z,94461.25
2019-05-11T15:57:49.687Z,94464.38
2019-05-11T16:00:19.798Z,94461.47
2019-05-11T16:02:49.362Z,94455.88
2019-05-11T16:05:19.079Z,94456.30
2019-05-11T16:07:49.165Z,94460.35
2019-05-11T16:10:19.254Z,94464.33
2019-05-11T16:12:49.138Z,94466.02
2019-05-11T16:15:19.615Z,94467.96
2019-05-11T16:17:49.650Z,94470.44
2019-05-11T16:20:19.607Z,94473.63
2019-05-11T16:22:49.059Z,94479.08
2019-05-11T16:25:19.861Z,94472.77
2019-05-11T16:27:49.688Z,94476.23
2019-05-11T16:30:21.584Z,94473.83
2019-05-11T16:32:50.691Z,94468.47
2019-05-11T16:35:20.765Z,94466.14
2019-05-11T16:37:50.085Z,94468.80
2019-05-11T16:40:20.965Z,94467.70
2019-05-11T16:42:50.711Z,94472.70
2019-05-11T16:45:23.607Z,94470.59
2019-05-11T16:47:51.393Z,94475.84
2019-05-11T16:50:20.957Z,94481.71
2019-05-11T16:52:50.343Z,94483.50
2019-05-11T16:55:19.722Z,94485.70
2019-05-11T16:57:49.201Z,94486.52
2019-05-11T17:00:18.770Z,94499.13
2019-05-11T17:02:48.985Z,94500.70
2019-05-11T17:05:26.446Z,94499.48
2019-05-11T17:07:50.006Z,94499.52
2019-05-11T17:10:19.922Z,94496.52
2019-05-11T17:12:49.308Z,94501.11
2019-05-11T17:15:19.403Z,94506.44
2019-05-11T17:17:49.034Z,94518.69
2019-05-11T17:20:19.470Z,94516.05
2019-05-11T17:22:48.931Z,94518.65
2019-05-11T17:25:19.094Z,94517.62
2019-05-11T17:27:49.353Z,94517.58
2019-05-11T17:30:19.858Z,94521.70
2019-05-11T17:32:49.874Z,94518.69
2019-05-11T17:35:24.333Z,94526.17
2019-05-11T17:37:53.666Z,94521.09
2019-05-11T17:40:23.701Z,94523.58
2019-05-11T17:42:54.242Z,94521.91
2019-05-11T17:45:24.049Z,94529.53
2019-05-11T17:47:53.416Z,94529.48
2019-05-11T17:50:22.839Z,94536.63
2019-05-11T17:52:52.204Z,94542.86
2019-05-11T17:55:21.697Z,94541.86
2019-05-11T17:57:53.889Z,94543.81
2019-05-11T18:00:23.026Z,94547.19
2019-05-11T18:02:52.455Z,94545.80
2019-05-11T18:05:21.861Z,94552.69
2019-05-11T18:07:51.243Z,94551.64
2019-05-11T18:10:20.627Z,94547.86
2019-05-11T18:12:50.546Z,94547.22
2019-05-11T18:15:20.457Z,94543.58
2019-05-11T18:17:49.925Z,94542.70
2019-05-11T18:20:21.744Z,94547.27
2019-05-11T18:22:50.930Z,94549.58
2019-05-11T18:25:20.568Z,94549.38
2019-05-11T18:27:50.058Z,94553.59
2019-05-11T18:30:19.699Z,94558.36
2019-05-11T18:32:49.406Z,94555.34
2019-05-11T18:35:19.624Z,94558.97
2019-05-11T18:37:49.156Z,94560.81
2019-05-11T18:40:19.933Z,94564.41
2019-05-11T18:42:49.285Z,94568.64
2019-05-11T18:45:19.320Z,94568.64
2019-05-11T18:47:49.972Z,94569.97
2019-05-11T18:50:30.652Z,94575.34
2019-05-11T18:52:50.787Z,94577.14
2019-05-11T18:55:20.154Z,94577.22
2019-05-11T18:57:49.689Z,94577.86
2019-05-11T19:00:19.306Z,94581.39
2019-05-11T19:02:49.579Z,94581.61
2019-05-11T19:05:19.444Z,94583.67
2019-05-11T19:07:48.811Z,94590.48
2019-05-11T19:10:18.250Z,94588.48
2019-05-11T19:12:48.710Z,94596.27
2019-05-11T19:15:19.130Z,94592.56
2019-05-11T19:17:49.340Z,94592.94
2019-05-11T19:20:19.152Z,94602.14
2019-05-11T19:22:48.592Z,94599.96
2019-05-11T19:25:18.420Z,94598.34
2019-05-11T19:27:50.591Z,94605.91
2019-05-11T19:30:19.161Z,94604.42
2019-05-11T19:32:48.937Z,94599.70
2019-05-11T19:35:21.214Z,94600.47
2019-05-11T19:37:49.649Z,94597.33
2019-05-11T19:40:19.009Z,94600.25
2019-05-11T19:42:55.080Z,94604.01
2019-05-11T19:45:24.445Z,94601.51
2019-05-11T19:47:53.840Z,94601.88
2019-05-11T19:50:23.237Z,94602.02
2019-05-11T19:52:52.624Z,94603.67
2019-05-11T19:55:22.004Z,94607.48
2019-05-11T19:57:51.452Z,94618.06
2019-05-11T20:00:21.214Z,94618.06
2019-05-11T20:02:50.601Z,94617.08
2019-05-11T20:05:20.043Z,94630.09
2019-05-11T20:07:49.417Z,94613.29
2019-05-11T20:10:19.248Z,94617.31
2019-05-11T20:12:48.907Z,94616.52
2019-05-11T20:15:19.054Z,94615.29
2019-05-11T20:17:49.144Z,94621.25
2019-05-11T20:20:19.029Z,94622.75
2019-05-11T20:22:48.805Z,94618.34
2019-05-11T20:25:19.298Z,94620.77
2019-05-11T20:27:49.192Z,94625.78
2019-05-11T20:30:19.314Z,94637.97
2019-05-11T20:32:49.375Z,94637.97
2019-05-11T20:35:21.221Z,94633.25
2019-05-11T20:37:50.613Z,94633.04
2019-05-11T20:40:20.308Z,94630.83
2019-05-11T20:42:49.687Z,94640.20
2019-05-11T20:45:19.167Z,94635.78
2019-05-11T20:47:49.116Z,94635.78
2019-05-11T20:50:18.788Z,94637.16
2019-05-11T20:52:48.733Z,94631.24
2019-05-11T20:55:18.607Z,94641.11
2019-05-11T20:57:48.731Z,94643.28
2019-05-11T21:00:18.959Z,94650.20
2019-05-11T21:02:48.949Z,94650.20
2019-05-11T21:05:18.690Z,94647.17
2019-05-11T21:07:48.147Z,94650.97
2019-05-11T21:10:17.629Z,94648.68
2019-05-11T21:12:47.004Z,94653.37
2019-05-11T21:15:16.918Z,94654.20
2019-05-11T21:17:50.255Z,94654.20
2019-05-11T21:20:18.143Z,94658.81
2019-05-11T21:22:48.686Z,94660.98
2019-05-11T21:25:18.474Z,94655.23
2019-05-11T21:27:48.726Z,94661.55
2019-05-11T21:30:18.885Z,94657.80
2019-05-11T21:32:48.275Z,94659.16
2019-05-11T21:35:19.216Z,94663.48
2019-05-11T21:37:48.963Z,94662.71
2019-05-11T21:40:18.296Z,94662.40
2019-05-11T21:42:47.808Z,94660.55
2019-05-11T21:45:18.251Z,94661.86
2019-05-11T21:47:49.003Z,94656.20
2019-05-11T21:50:19.263Z,94651.52
2019-05-11T21:52:48.893Z,94653.90
2019-05-11T21:55:18.311Z,94653.30
2019-05-11T21:57:49.807Z,94656.59
2019-05-11T22:00:19.700Z,94654.86
2019-05-11T22:02:49.062Z,94652.44
2019-05-11T22:05:20.851Z,94652.25
2019-05-11T22:07:49.646Z,94644.84
2019-05-11T22:10:19.240Z,94636.53
2019-05-11T22:12:49.150Z,94634.48
2019-05-11T22:15:18.597Z,94626.96
2019-05-11T22:17:48.213Z,94623.26
2019-05-11T22:20:18.403Z,94625.87
2019-05-11T22:22:47.980Z,94618.63
2019-05-11T22:25:18.263Z,94625.41
2019-05-11T22:27:48.777Z,94625.72
2019-05-11T22:30:18.778Z,94622.07
2019-05-11T22:32:48.308Z,94624.13
2019-05-11T22:35:18.360Z,94628.14
2019-05-11T22:37:48.992Z,94626.74
2019-05-11T22:40:18.708Z,94628.65
2019-05-11T22:42:48.106Z,94629.40
2019-05-11T22:45:18.729Z,94616.66
2019-05-11T22:47:48.326Z,94624.56
2019-05-11T22:50:18.574Z,94627.09
2019-05-11T22:52:48.691Z,94628.41
2019-05-11T22:55:19.017Z,94631.02
2019-05-11T22:57:48.709Z,94631.64
2019-05-11T23:00:22.270Z,94627.73
2019-05-11T23:02:51.654Z,94630.22
2019-05-11T23:05:21.076Z,94631.64
2019-05-11T23:07:50.474Z,94632.39
2019-05-11T23:10:19.839Z,94628.36
2019-05-11T23:12:49.177Z,94632.58
2019-05-11T23:15:19.383Z,94626.17
2019-05-11T23:17:48.837Z,94627.98
2019-05-11T23:20:18.599Z,94626.87
2019-05-11T23:22:56.813Z,94621.84
2019-05-11T23:25:19.387Z,94621.33
2019-05-11T23:27:49.017Z,94619.97
2019-05-11T23:30:19.948Z,94620.96
2019-05-11T23:32:49.753Z,94624.81
2019-05-11T23:35:19.350Z,94619.63
2019-05-11T23:37:49.903Z,94623.03
2019-05-11T23:40:20.274Z,94625.89
2019-05-11T23:42:49.713Z,94622.91
2019-05-11T23:45:19.596Z,94624.91
2019-05-11T23:47:49.307Z,94620.11
2019-05-11T23:50:19.358Z,94625.06
2019-05-11T23:53:05.071Z,94627.39
2019-05-11T23:55:20.375Z,94628.50
2019-05-11T23:57:49.945Z,94630.28
